Terminal Aerodrome Forecast
Issued by NWS

Home | Current Version | Previous Version | Text Only | Print | Product List | Glossary On
Versions: 1 2 3 4 5 6 7 8 9 10 11 12 13 14 15 16 17 18 19 20 21 22 23 24 25 26 27 28 29
000
FTUS45 KPIH 182331
TAFSUN
TAF
KSUN 182331Z 1900/2006 14008KT P6SM FEW015 SCT080 SCT150
     FM190200 VRB04KT P6SM FEW015 SCT090 SCT150
     FM190900 31006KT P6SM SCT015 BKN110
     FM191800 14006KT P6SM BKN100
     FM200200 31006KT P6SM SCT130
      AMD LTD TO CLD VIS AND WIND 1906/1914=

USA.gov is the U.S. government's official web portal to all federal, state and local government web resources and services.